Time;durP1;ratioP1;P1;durP2;ratioP2;P2;SDS_P1;SDS_P2;PMS_P1;PMS_P2;Temp;Humidity;BMP_temperature;BMP_pressure;BME280_temperature;BME280_humidity;BME280_pressure;Samples;Min_cycle;Max_cycle;Signal;HPM_P1;HPM_P2
2023/03/25 00:02:20;;;;;;;14.40;13.13;;;;;;;7.91;84.88;92548.63;5067811;28;20223;-69
2023/03/25 00:04:49;;;;;;;13.63;12.50;;;;;;;7.82;85.00;92542.44;5068625;28;20229;-68
2023/03/25 00:07:17;;;;;;;16.37;13.20;;;;;;;7.82;85.00;92526.03;5068433;28;20190;-69
2023/03/25 00:09:42;;;;;;;14.50;13.20;;;;;;;7.60;84.86;92518.56;5068400;28;20239;-68
2023/03/25 00:12:08;;;;;;;13.77;12.67;;;;;;;7.75;85.54;92541.91;5068405;28;20672;-68
2023/03/25 00:14:33;;;;;;;12.60;11.53;;;;;;;7.84;85.65;92550.72;5067601;28;20233;-68
2023/03/25 00:17:00;;;;;;;13.67;12.67;;;;;;;7.71;85.48;92538.28;5068077;28;20257;-68
2023/03/25 00:19:26;;;;;;;13.50;12.30;;;;;;;7.73;85.52;92536.22;5068209;28;20197;-67
2023/03/25 00:21:52;;;;;;;14.83;13.43;;;;;;;7.77;85.54;92545.03;5071510;28;20280;-69
2023/03/25 00:24:18;;;;;;;12.30;11.13;;;;;;;7.84;85.32;92544.75;5071420;28;20197;-68
2023/03/25 00:26:45;;;;;;;12.27;11.43;;;;;;;7.56;86.30;92524.53;5072457;28;20182;-67
2023/03/25 00:29:12;;;;;;;14.13;13.03;;;;;;;7.45;86.95;92507.41;5071628;28;20187;-69
2023/03/25 00:31:38;;;;;;;14.27;12.37;;;;;;;7.57;86.75;92523.50;5071916;28;20210;-68
2023/03/25 00:34:04;;;;;;;13.47;12.27;;;;;;;7.72;86.77;92521.63;5070486;28;20208;-68
2023/03/25 00:36:29;;;;;;;14.20;13.00;;;;;;;7.61;87.48;92519.34;5071712;28;20217;-69
2023/03/25 00:38:55;;;;;;;14.40;13.27;;;;;;;7.53;87.12;92510.22;5072287;28;20173;-68
2023/03/25 00:41:24;;;;;;;13.10;12.00;;;;;;;7.70;87.26;92528.94;5071468;28;20221;-68
2023/03/25 00:43:52;;;;;;;13.20;12.10;;;;;;;7.80;87.02;92526.31;5072005;28;20186;-69
2023/03/25 00:46:17;;;;;;;13.03;11.93;;;;;;;7.64;86.89;92524.78;5071820;28;20225;-68
2023/03/25 00:48:43;;;;;;;14.30;12.87;;;;;;;7.59;87.40;92529.22;5070785;28;20197;-68
2023/03/25 00:51:12;;;;;;;13.80;12.63;;;;;;;7.76;86.84;92525.28;5071320;28;20300;-68
2023/03/25 00:53:39;;;;;;;12.87;11.60;;;;;;;7.81;87.05;92520.06;5072247;28;20189;-68
2023/03/25 00:56:05;;;;;;;13.70;12.50;;;;;;;7.60;88.35;92515.16;5070990;28;20243;-68
2023/03/25 00:58:30;;;;;;;13.10;12.20;;;;;;;7.51;88.73;92514.16;5071909;28;20196;-67
2023/03/25 01:00:56;;;;;;;13.67;12.60;;;;;;;7.62;88.11;92513.88;5071234;28;20241;-68
2023/03/25 01:03:23;;;;;;;13.37;12.07;;;;;;;7.51;89.17;92514.94;5071497;28;20252;-67
2023/03/25 01:05:49;;;;;;;14.53;13.37;;;;;;;7.60;88.77;92505.56;5070365;28;20293;-68
2023/03/25 01:08:16;;;;;;;13.83;12.83;;;;;;;7.54;88.61;92493.63;5071248;28;20205;-68
2023/03/25 01:10:42;;;;;;;14.23;13.07;;;;;;;7.63;88.57;92502.44;5070982;28;20221;-68
2023/03/25 01:13:07;;;;;;;13.60;12.60;;;;;;;7.52;88.65;92497.50;5071604;28;20193;-69
2023/03/25 01:15:33;;;;;;;13.77;12.67;;;;;;;7.64;88.58;92503.22;5070614;28;20225;-68
2023/03/25 01:17:58;;;;;;;14.27;13.03;;;;;;;7.64;88.55;92491.00;5070473;28;20196;-68
2023/03/25 01:20:25;;;;;;;14.00;12.67;;;;;;;7.72;88.63;92485.25;5071120;28;20241;-68
2023/03/25 01:22:51;;;;;;;14.83;13.73;;;;;;;7.73;88.08;92489.44;5071005;28;20219;-69
2023/03/25 01:25:16;;;;;;;13.60;11.30;;;;;;;7.65;88.78;92489.97;5070779;28;20277;-68
2023/03/25 01:27:41;;;;;;;12.13;11.23;;;;;;;7.63;89.52;92496.47;5069731;28;20170;-67
2023/03/25 01:30:07;;;;;;;14.83;13.17;;;;;;;7.58;90.00;92486.84;5070837;28;20236;-69
2023/03/25 01:32:33;;;;;;;13.77;12.47;;;;;;;7.49;90.04;92470.25;5070345;28;20207;-68
2023/03/25 01:34:58;;;;;;;17.93;12.67;;;;;;;7.57;89.58;92487.91;5070613;28;20224;-68
2023/03/25 01:37:24;;;;;;;16.47;13.30;;;;;;;7.48;90.04;92455.72;5071097;28;20221;-68
2023/03/25 01:39:49;;;;;;;14.97;13.63;;;;;;;7.60;89.55;92471.78;5070447;28;20243;-69
2023/03/25 01:42:15;;;;;;;13.50;12.23;;;;;;;7.55;89.34;92461.41;5069184;28;20217;-69
2023/03/25 01:44:43;;;;;;;14.63;13.33;;;;;;;7.48;89.98;92466.13;5070349;28;20248;-68
2023/03/25 01:47:09;;;;;;;15.00;13.60;;;;;;;7.49;90.26;92459.88;5069562;28;20194;-68
2023/03/25 01:49:43;;;;;;;14.93;13.33;;;;;;;7.51;90.18;92468.19;5068279;28;20288;-68
2023/03/25 01:52:16;;;;;;;17.23;14.97;;;;;;;7.40;89.96;92447.69;5070247;28;20203;-68
2023/03/25 01:54:44;;;;;;;16.80;15.03;;;;;;;7.47;90.16;92456.75;5069857;28;20258;-68
2023/03/25 01:57:13;;;;;;;16.23;14.83;;;;;;;7.38;90.61;92463.53;5069701;28;20205;-68
2023/03/25 01:59:40;;;;;;;15.70;14.10;;;;;;;7.31;91.05;92457.03;5070001;28;20225;-68
2023/03/25 02:02:07;;;;;;;16.70;14.83;;;;;;;7.30;90.96;92460.69;5070536;28;20212;-68
2023/03/25 02:04:50;;;;;;;15.03;13.43;;;;;;;7.15;91.29;92445.09;5069345;28;20249;-69
2023/03/25 02:07:17;;;;;;;15.63;14.13;;;;;;;7.21;91.65;92450.03;5070985;28;20189;-68
2023/03/25 02:09:43;;;;;;;14.20;12.97;;;;;;;7.29;91.22;92457.31;5069868;28;20237;-68
2023/03/25 02:12:08;;;;;;;14.10;13.00;;;;;;;7.22;91.44;92453.44;5070606;28;20219;-68
2023/03/25 02:14:36;;;;;;;13.80;12.40;;;;;;;7.25;91.36;92456.28;5069688;28;20874;-68
2023/03/25 02:17:32;;;;;;;13.30;12.30;;;;;;;7.42;91.40;92449.00;5070951;28;20265;-68
2023/03/25 02:20:24;;;;;;;14.73;13.43;;;;;;;7.22;91.97;92445.63;5069071;28;20875;-69
2023/03/25 02:23:10;;;;;;;15.00;13.70;;;;;;;7.21;92.02;92450.03;5070270;28;20200;-68
2023/03/25 02:25:50;;;;;;;14.47;13.27;;;;;;;7.07;92.79;92441.22;5069241;28;20241;-68
2023/03/25 02:28:35;;;;;;;17.60;12.43;;;;;;;7.01;93.88;92442.28;5070289;28;20383;-67
2023/03/25 02:31:03;;;;;;;13.93;12.63;;;;;;;6.97;93.76;92446.44;5069651;28;20217;-68
2023/03/25 02:33:50;;;;;;;14.87;13.43;;;;;;;6.93;94.20;92449.78;5068049;28;20194;-67
2023/03/25 02:36:40;;;;;;;14.90;13.60;;;;;;;6.91;94.76;92444.84;5069187;28;20233;-68
2023/03/25 02:39:08;;;;;;;15.63;14.03;;;;;;;6.97;94.69;92445.66;5069918;28;20208;-68
2023/03/25 02:41:46;;;;;;;14.80;13.37;;;;;;;6.83;95.62;92444.63;5069294;28;20221;-68
2023/03/25 02:44:29;;;;;;;15.60;13.40;;;;;;;6.76;95.91;92442.28;5068764;28;20211;-67
2023/03/25 02:46:58;;;;;;;15.13;13.67;;;;;;;6.73;95.53;92440.19;5068339;28;20225;-68
2023/03/25 02:49:29;;;;;;;14.70;13.30;;;;;;;6.76;95.45;92434.50;5068619;28;20185;-68
2023/03/25 02:52:00;;;;;;;15.63;14.10;;;;;;;6.81;95.52;92426.72;5068578;28;20181;-69
2023/03/25 02:54:29;;;;;;;15.57;14.30;;;;;;;6.72;96.57;92425.69;5069106;28;20205;-68
2023/03/25 02:56:56;;;;;;;15.43;14.03;;;;;;;6.71;96.45;92428.53;5068476;28;20181;-67
2023/03/25 02:59:31;;;;;;;15.17;13.23;;;;;;;6.69;96.55;92428.78;5068664;28;20249;-68
2023/03/25 03:01:59;;;;;;;13.57;12.20;;;;;;;6.78;95.55;92424.63;5069611;28;20239;-68
2023/03/25 03:04:24;;;;;;;14.77;13.37;;;;;;;6.81;95.16;92433.72;5068403;28;20278;-66
2023/03/25 03:06:51;;;;;;;15.37;14.17;;;;;;;6.78;95.17;92432.44;5069779;28;20189;-67
2023/03/25 03:09:37;;;;;;;15.07;13.80;;;;;;;6.79;95.10;92428.00;5068968;28;21280;-68
2023/03/25 03:12:54;;;;;;;14.37;13.10;;;;;;;6.70;95.45;92407.00;5069470;28;20232;-68
2023/03/25 03:15:34;;;;;;;14.90;13.60;;;;;;;6.69;95.24;92397.66;5067427;28;20236;-68
2023/03/25 03:18:18;;;;;;;14.03;12.63;;;;;;;6.70;95.66;92417.38;5069871;28;20185;-68
2023/03/25 03:21:16;;;;;;;14.03;12.77;;;;;;;6.71;95.96;92418.91;5068158;28;20248;-68
2023/03/25 03:24:26;;;;;;;13.80;12.60;;;;;;;6.66;96.33;92411.16;5069599;28;20204;-68
2023/03/25 03:27:02;;;;;;;14.63;13.40;;;;;;;6.64;96.66;92425.41;5066547;28;20299;-68
2023/03/25 03:29:31;;;;;;;14.30;12.93;;;;;;;6.58;96.69;92415.03;5066616;28;20196;-68
2023/03/25 03:32:12;;;;;;;14.07;12.83;;;;;;;6.74;96.10;92420.22;5067944;28;20205;-68
2023/03/25 03:35:05;;;;;;;11.93;11.07;;;;;;;6.66;95.86;92426.72;5068059;28;20237;-67
2023/03/25 03:37:36;;;;;;;12.57;11.67;;;;;;;6.69;96.34;92433.97;5068890;28;20224;-68
2023/03/25 03:40:05;;;;;;;14.03;13.03;;;;;;;6.61;96.40;92421.53;5068546;28;20220;-66
2023/03/25 03:42:41;;;;;;;13.07;11.97;;;;;;;6.64;96.42;92431.38;5068858;28;20235;-68
2023/03/25 03:45:19;;;;;;;13.60;12.37;;;;;;;6.57;97.24;92425.66;5067271;28;20246;-68
2023/03/25 03:47:50;;;;;;;14.43;12.93;;;;;;;6.52;97.43;92418.66;5068306;28;20185;-68
2023/03/25 03:50:22;;;;;;;14.43;13.17;;;;;;;6.43;98.14;92420.19;5066304;28;20243;-68
2023/03/25 03:53:02;;;;;;;15.03;13.90;;;;;;;6.46;97.66;92424.88;5068519;28;20193;-67
2023/03/25 03:55:36;;;;;;;13.83;12.47;;;;;;;6.47;97.19;92420.47;5069587;28;20237;-68
2023/03/25 03:58:08;;;;;;;14.80;12.70;;;;;;;6.64;96.87;92443.56;5072838;28;20217;-68
2023/03/25 04:00:56;;;;;;;14.70;13.40;;;;;;;6.70;96.53;92435.53;5072576;28;20300;-70
2023/03/25 04:03:29;;;;;;;14.07;12.87;;;;;;;6.85;95.94;92439.94;5073032;28;20188;-68
2023/03/25 04:06:06;;;;;;;14.47;12.73;;;;;;;6.71;96.22;92436.31;5071615;28;20217;-68
2023/03/25 04:08:41;;;;;;;17.00;14.70;;;;;;;6.69;96.15;92428.78;5072711;28;20184;-68
2023/03/25 04:11:10;;;;;;;14.50;13.27;;;;;;;6.82;95.24;92430.84;5071299;28;20408;-68
2023/03/25 04:13:40;;;;;;;15.90;14.53;;;;;;;6.85;95.13;92437.38;5072825;28;20941;-68
2023/03/25 04:16:06;;;;;;;15.27;13.90;;;;;;;6.82;95.26;92437.88;5072130;28;20217;-67
2023/03/25 04:18:32;;;;;;;14.67;13.37;;;;;;;6.83;94.54;92431.66;5072478;28;20191;-68
2023/03/25 04:20:59;;;;;;;15.50;14.00;;;;;;;6.99;93.93;92441.00;5071205;28;20220;-66
2023/03/25 04:23:25;;;;;;;14.33;13.03;;;;;;;6.95;93.92;92432.94;5072482;28;20181;-68
2023/03/25 04:25:51;;;;;;;14.57;13.03;;;;;;;6.83;94.44;92429.84;5071757;28;20330;-68
2023/03/25 04:28:18;;;;;;;14.13;12.93;;;;;;;6.87;94.37;92437.84;5072234;28;20204;-68
2023/03/25 04:30:44;;;;;;;13.90;12.70;;;;;;;6.89;94.77;92431.38;5071545;28;20237;-68
2023/03/25 04:33:11;;;;;;;14.50;12.97;;;;;;;6.81;94.87;92429.31;5072183;28;20193;-69
2023/03/25 04:35:37;;;;;;;14.70;13.50;;;;;;;6.87;95.16;92428.25;5069902;28;20285;-67
2023/03/25 04:38:04;;;;;;;14.60;13.17;;;;;;;6.86;95.08;92429.31;5072348;28;20204;-67
2023/03/25 04:40:30;;;;;;;13.73;12.53;;;;;;;6.76;94.99;92411.16;5071668;28;20209;-69
2023/03/25 04:42:55;;;;;;;15.03;13.83;;;;;;;6.94;94.89;92425.41;5072353;28;20239;-68
2023/03/25 04:45:21;;;;;;;14.33;12.73;;;;;;;6.93;95.38;92440.19;5071664;28;20228;-68
2023/03/25 04:47:48;;;;;;;13.80;12.20;;;;;;;6.98;95.43;92442.78;5072108;28;20192;-68
2023/03/25 04:50:26;;;;;;;13.97;12.77;;;;;;;7.03;94.85;92436.81;5071459;28;20237;-68
2023/03/25 04:52:52;;;;;;;15.20;13.50;;;;;;;7.10;94.27;92448.50;5069630;28;20193;-68
2023/03/25 04:55:19;;;;;;;14.17;12.90;;;;;;;7.16;94.47;92449.28;5071551;28;20222;-69
2023/03/25 04:57:50;;;;;;;15.47;13.93;;;;;;;7.32;94.04;92450.81;5071890;28;20245;-68
2023/03/25 05:00:18;;;;;;;13.10;11.93;;;;;;;7.44;93.64;92451.31;5071619;28;20214;-68
2023/03/25 05:02:46;;;;;;;13.23;12.23;;;;;;;7.56;93.02;92454.41;5071606;28;20198;-67
2023/03/25 05:05:20;;;;;;;13.90;12.77;;;;;;;7.66;93.09;92454.38;5070390;28;20239;-68
2023/03/25 05:07:48;;;;;;;12.63;11.63;;;;;;;7.78;92.28;92457.47;5070898;28;20213;-68
2023/03/25 05:10:14;;;;;;;14.07;12.87;;;;;;;7.86;92.04;92454.31;5070486;28;20225;-68
2023/03/25 05:12:39;;;;;;;13.47;12.43;;;;;;;8.09;90.98;92446.66;5071553;28;20186;-68
2023/03/25 05:15:06;;;;;;;13.57;12.57;;;;;;;8.25;89.88;92457.81;5071081;28;20233;-68
2023/03/25 05:17:31;;;;;;;15.03;13.57;;;;;;;8.47;88.05;92447.81;5071209;28;20205;-68
2023/03/25 05:19:57;;;;;;;13.93;12.87;;;;;;;8.60;87.13;92454.25;5069864;28;20304;-68
2023/03/25 05:22:22;;;;;;;13.53;12.37;;;;;;;8.75;85.91;92446.31;5071281;28;21004;-69
2023/03/25 05:24:52;;;;;;;15.37;13.97;;;;;;;8.87;85.00;92454.59;5070913;28;20230;-68
2023/03/25 05:27:21;;;;;;;14.23;12.53;;;;;;;9.05;82.18;92459.13;5071518;28;20189;-68
2023/03/25 05:29:46;;;;;;;13.17;12.07;;;;;;;9.21;81.21;92458.72;5071015;28;20225;-68
2023/03/25 05:32:16;;;;;;;14.27;13.07;;;;;;;9.24;78.57;92457.41;5066847;28;20201;-68
2023/03/25 05:34:45;;;;;;;15.23;13.80;;;;;;;9.15;78.33;92446.03;5066197;28;20245;-68
2023/03/25 05:37:12;;;;;;;14.10;12.80;;;;;;;9.21;77.49;92445.69;5069084;28;20224;-69
2023/03/25 05:39:37;;;;;;;14.00;12.77;;;;;;;9.52;77.19;92452.22;5070555;28;21006;-68
2023/03/25 05:42:03;;;;;;;15.00;13.50;;;;;;;9.56;75.99;92465.47;5069826;28;20221;-68
2023/03/25 05:44:28;;;;;;;16.53;13.73;;;;;;;9.57;76.89;92461.81;5070780;28;20189;-68
2023/03/25 05:46:53;;;;;;;15.30;13.87;;;;;;;9.70;76.37;92466.38;5051085;28;20205;-68
2023/03/25 05:49:20;;;;;;;15.03;13.53;;;;;;;9.72;76.98;92461.66;5050431;28;20203;-68
2023/03/25 05:51:48;;;;;;;13.40;12.23;;;;;;;9.85;75.67;92455.00;5050048;28;20229;-68
2023/03/25 05:54:14;;;;;;;14.73;13.43;;;;;;;9.78;76.63;92453.50;5048929;28;20182;-68
2023/03/25 05:56:40;;;;;;;15.50;14.10;;;;;;;10.23;75.47;92457.47;5050637;28;20206;-68
2023/03/25 05:59:07;;;;;;;15.17;13.77;;;;;;;10.24;74.83;92463.47;5050734;28;20918;-68
2023/03/25 06:01:32;;;;;;;14.73;12.77;;;;;;;10.45;74.47;92465.53;5049871;28;20244;-68
2023/03/25 06:04:00;;;;;;;16.07;13.87;;;;;;;10.27;73.07;92455.84;5050654;28;20234;-68
2023/03/25 06:06:26;;;;;;;14.13;12.83;;;;;;;10.42;72.92;92468.72;5049285;28;20240;-68
2023/03/25 06:08:51;;;;;;;15.67;12.97;;;;;;;10.52;72.53;92468.56;5050890;28;20186;-69
2023/03/25 06:11:18;;;;;;;15.30;12.87;;;;;;;10.47;72.27;92465.25;5049800;28;20240;-67
2023/03/25 06:13:48;;;;;;;14.53;13.33;;;;;;;10.76;71.25;92465.91;5050350;28;20194;-68
2023/03/25 06:16:19;;;;;;;13.10;12.00;;;;;;;10.81;70.42;92469.22;5050555;28;20666;-68
2023/03/25 06:18:49;;;;;;;13.20;12.10;;;;;;;11.00;70.36;92462.13;5051509;28;20192;-68
2023/03/25 06:21:19;;;;;;;14.23;12.80;;;;;;;11.25;68.98;92461.00;5048948;28;20240;-67
2023/03/25 06:23:48;;;;;;;15.33;13.93;;;;;;;11.40;68.96;92463.34;5049608;28;20216;-68
2023/03/25 06:26:14;;;;;;;14.40;13.13;;;;;;;11.51;67.86;92462.13;5049713;28;20234;-69
2023/03/25 06:28:40;;;;;;;13.73;12.53;;;;;;;11.57;67.98;92462.81;5050088;28;20191;-68
2023/03/25 06:31:15;;;;;;;12.73;11.70;;;;;;;11.65;67.53;92456.94;5049652;28;20232;-68
2023/03/25 06:33:45;;;;;;;14.07;12.80;;;;;;;11.49;68.59;92455.66;5049251;28;20213;-68
2023/03/25 06:36:12;;;;;;;13.27;12.13;;;;;;;11.84;67.09;92455.03;5048900;28;20225;-68
2023/03/25 06:38:38;;;;;;;13.43;12.33;;;;;;;11.61;67.99;92471.63;5049051;28;20192;-68
2023/03/25 06:41:06;;;;;;;14.37;13.13;;;;;;;11.54;68.77;92473.84;5049305;28;20261;-68
2023/03/25 06:43:32;;;;;;;14.33;13.03;;;;;;;11.97;66.36;92467.38;5049600;28;20213;-68
2023/03/25 06:45:57;;;;;;;13.87;12.63;;;;;;;11.96;67.02;92478.88;5060621;28;20221;-68
2023/03/25 06:48:22;;;;;;;15.13;13.73;;;;;;;12.12;65.53;92467.88;5069734;28;20193;-68
2023/03/25 06:50:48;;;;;;;14.23;12.93;;;;;;;12.14;65.29;92465.72;5068628;28;20229;-68
2023/03/25 06:53:14;;;;;;;15.87;12.40;;;;;;;12.18;65.27;92474.53;5069369;28;20178;-67
2023/03/25 06:55:40;;;;;;;20.20;14.47;;;;;;;12.05;66.61;92477.13;5069275;28;20221;-68
2023/03/25 06:58:05;;;;;;;14.57;13.20;;;;;;;12.17;65.85;92472.22;5069559;28;20226;-68
2023/03/25 07:00:30;;;;;;;13.20;12.10;;;;;;;12.34;64.56;92475.78;5069385;28;20229;-68
2023/03/25 07:02:57;;;;;;;14.63;13.23;;;;;;;12.42;64.25;92493.44;5069494;28;20212;-68
2023/03/25 07:05:23;;;;;;;15.10;13.83;;;;;;;12.15;65.26;92493.44;5068255;28;20322;-68
2023/03/25 07:07:49;;;;;;;15.60;13.73;;;;;;;12.18;64.46;92481.59;5068357;28;20256;-68
2023/03/25 07:10:14;;;;;;;14.57;13.33;;;;;;;12.15;66.16;92487.44;5069094;28;20251;-66
2023/03/25 07:12:40;;;;;;;15.07;13.57;;;;;;;12.06;65.97;92465.63;5069472;28;20214;-68
2023/03/25 07:15:06;;;;;;;14.10;12.80;;;;;;;12.33;64.70;92483.94;5068556;28;20221;-69
2023/03/25 07:17:31;;;;;;;14.93;12.27;;;;;;;12.42;65.07;92471.72;5069926;28;20230;-69
2023/03/25 07:19:57;;;;;;;14.27;12.97;;;;;;;12.38;64.84;92475.97;5067927;28;20221;-69
2023/03/25 07:22:22;;;;;;;14.33;12.90;;;;;;;12.69;64.40;92472.47;5069210;28;21376;-69
2023/03/25 07:24:47;;;;;;;15.07;13.67;;;;;;;12.49;64.54;92472.09;5068525;28;20259;-70
2023/03/25 07:27:14;;;;;;;14.63;13.13;;;;;;;13.00;62.78;92482.28;5069275;28;20197;-69
2023/03/25 07:29:40;;;;;;;14.03;12.93;;;;;;;13.15;61.11;92480.13;5068677;28;20229;-69
2023/03/25 07:32:06;;;;;;;15.40;13.90;;;;;;;12.79;62.92;92487.94;5069323;28;20224;-69
2023/03/25 07:34:31;;;;;;;14.97;13.47;;;;;;;13.10;61.54;92484.69;5068791;28;20270;-69
2023/03/25 07:36:57;;;;;;;15.93;14.63;;;;;;;13.31;61.19;92483.19;5068573;28;20180;-70
2023/03/25 07:39:24;;;;;;;15.33;13.50;;;;;;;13.22;61.96;92480.50;5068881;28;20211;-68
2023/03/25 07:41:50;;;;;;;21.23;13.83;;;;;;;13.47;61.15;92481.75;5068604;28;20224;-70
2023/03/25 07:44:15;;;;;;;15.27;13.33;;;;;;;13.50;61.16;92481.13;5068720;28;20189;-69
2023/03/25 07:46:41;;;;;;;15.20;12.57;;;;;;;13.39;61.08;92480.63;5069013;28;20228;-69
2023/03/25 07:49:06;;;;;;;15.57;14.07;;;;;;;13.42;61.57;92474.78;5069221;28;20193;-70
2023/03/25 07:51:33;;;;;;;14.10;12.80;;;;;;;13.82;59.57;92476.41;5068287;28;20225;-69
2023/03/25 07:53:59;;;;;;;14.07;12.50;;;;;;;14.02;58.46;92470.63;5068790;28;20287;-68
2023/03/25 07:56:24;;;;;;;14.37;13.07;;;;;;;14.10;58.29;92479.63;5068494;28;20237;-69
2023/03/25 07:58:50;;;;;;;14.10;12.70;;;;;;;14.22;57.21;92464.88;5068665;28;20241;-70
2023/03/25 08:01:15;;;;;;;14.70;13.37;;;;;;;13.65;59.60;92465.81;5068045;28;20225;-70
2023/03/25 08:03:41;;;;;;;13.30;12.00;;;;;;;14.06;58.76;92455.84;5068805;28;20199;-70
2023/03/25 08:06:07;;;;;;;14.50;13.20;;;;;;;14.30;57.73;92464.13;5067182;28;20213;-70
2023/03/25 08:08:32;;;;;;;14.50;13.27;;;;;;;14.61;57.40;92463.28;5068552;28;20261;-69
2023/03/25 08:10:58;;;;;;;13.90;12.70;;;;;;;14.70;56.39;92459.59;5068404;28;20232;-70
2023/03/25 08:13:24;;;;;;;16.67;12.63;;;;;;;14.54;56.86;92445.34;5068928;28;20177;-70
2023/03/25 08:15:50;;;;;;;15.33;13.77;;;;;;;14.72;55.94;92454.81;5067988;28;20229;-69
2023/03/25 08:18:16;;;;;;;13.90;12.43;;;;;;;14.12;57.73;92454.63;5069202;28;20264;-70
2023/03/25 08:20:41;;;;;;;14.63;13.23;;;;;;;14.06;58.71;92450.59;5067842;28;20347;-68
2023/03/25 08:23:09;;;;;;;14.37;12.93;;;;;;;14.54;56.83;92452.47;5068613;28;20189;-69
2023/03/25 08:25:36;;;;;;;15.87;13.30;;;;;;;14.93;56.05;92449.72;5067440;28;20218;-69
2023/03/25 08:28:01;;;;;;;15.20;13.80;;;;;;;15.37;56.25;92441.53;5068815;28;20193;-70
2023/03/25 08:30:27;;;;;;;16.23;14.47;;;;;;;15.51;56.23;92450.84;5068290;28;20229;-69
2023/03/25 08:32:55;;;;;;;16.93;15.40;;;;;;;15.40;56.39;92449.63;5067655;28;20198;-69
2023/03/25 08:35:22;;;;;;;16.27;14.63;;;;;;;15.47;57.02;92451.78;5067530;28;20230;-69
2023/03/25 08:37:48;;;;;;;16.47;14.37;;;;;;;15.76;57.73;92457.94;5068423;28;20169;-69
2023/03/25 08:40:16;;;;;;;17.53;13.97;;;;;;;16.32;55.78;92454.16;5068061;28;20248;-70
2023/03/25 08:42:41;;;;;;;17.90;13.77;;;;;;;16.45;52.43;92432.13;5071360;28;20217;-70
2023/03/25 08:45:07;;;;;;;17.33;13.73;;;;;;;16.49;53.92;92445.44;5071698;28;20256;-69
2023/03/25 08:47:33;;;;;;;15.53;13.73;;;;;;;16.73;51.62;92435.81;5072109;28;20192;-70
2023/03/25 08:49:58;;;;;;;15.00;13.57;;;;;;;16.79;52.33;92431.94;5070934;28;20229;-69
2023/03/25 08:52:24;;;;;;;16.03;13.87;;;;;;;16.90;53.31;92443.63;5071799;28;20208;-69
2023/03/25 08:54:49;;;;;;;16.17;14.53;;;;;;;17.11;51.85;92436.50;5070370;28;20260;-69
2023/03/25 08:57:15;;;;;;;16.53;13.67;;;;;;;16.98;51.95;92434.88;5071864;28;20169;-70
2023/03/25 08:59:41;;;;;;;16.60;13.47;;;;;;;16.91;51.25;92439.13;5071388;28;20303;-70
2023/03/25 09:02:08;;;;;;;19.27;14.50;;;;;;;16.36;53.83;92436.63;5071507;28;20217;-70
2023/03/25 09:04:33;;;;;;;17.40;14.67;;;;;;;16.32;53.65;92430.47;5071076;28;20267;-70
2023/03/25 09:06:58;;;;;;;16.70;14.90;;;;;;;16.42;53.42;92431.97;5071725;28;20194;-70
2023/03/25 09:09:24;;;;;;;16.67;14.27;;;;;;;16.77;52.85;92428.06;5070475;28;20261;-70
2023/03/25 09:11:49;;;;;;;16.27;14.40;;;;;;;16.61;52.59;92429.69;5071439;28;20185;-69
2023/03/25 09:14:15;;;;;;;17.00;15.20;;;;;;;16.60;53.19;92413.13;5070932;28;20247;-70
2023/03/25 09:16:40;;;;;;;15.00;13.50;;;;;;;16.36;53.08;92427.97;5071887;28;20256;-69
2023/03/25 09:19:07;;;;;;;16.17;14.33;;;;;;;16.22;54.30;92409.72;5070429;28;20791;-70
2023/03/25 09:21:32;;;;;;;15.93;14.23;;;;;;;16.10;54.54;92404.38;5070925;28;20260;-69
2023/03/25 09:23:58;;;;;;;17.13;13.27;;;;;;;16.80;52.39;92416.88;5070602;28;20227;-69
2023/03/25 09:26:25;;;;;;;15.67;14.07;;;;;;;16.85;52.79;92406.91;5071202;28;20229;-70
2023/03/25 09:28:50;;;;;;;22.80;14.97;;;;;;;16.87;52.82;92407.34;5071057;28;20177;-69
2023/03/25 09:31:15;;;;;;;15.60;13.67;;;;;;;16.77;52.30;92401.69;5070906;28;20232;-69
2023/03/25 09:33:41;;;;;;;16.87;14.67;;;;;;;16.69;52.65;92398.03;5070935;28;20209;-69
2023/03/25 09:36:07;;;;;;;16.07;14.37;;;;;;;16.70;52.66;92409.34;5071006;28;20285;-69
2023/03/25 09:38:32;;;;;;;15.77;14.37;;;;;;;16.51;53.20;92404.50;5070676;28;20201;-69
2023/03/25 09:41:02;;;;;;;16.80;15.03;;;;;;;16.66;52.95;92398.66;5070486;28;20275;-70
2023/03/25 09:43:39;;;;;;;22.47;14.93;;;;;;;17.04;50.79;92404.59;5070629;28;20189;-69
2023/03/25 09:46:06;;;;;;;17.73;14.53;;;;;;;16.97;50.67;92385.09;5069995;28;20263;-69
2023/03/25 09:48:43;;;;;;;19.70;14.17;;;;;;;17.41;51.45;92401.03;5071265;28;20194;-69
2023/03/25 09:51:23;;;;;;;19.80;15.57;;;;;;;17.66;50.47;92396.63;5070328;28;20229;-69
2023/03/25 09:53:58;;;;;;;17.63;14.33;;;;;;;17.90;48.52;92401.19;5068133;28;20232;-69
2023/03/25 09:56:27;;;;;;;15.73;14.13;;;;;;;17.73;49.76;92373.06;5069647;28;20237;-70
2023/03/25 09:59:02;;;;;;;22.23;16.03;;;;;;;17.85;49.60;92393.47;5070012;28;20193;-69
2023/03/25 10:01:33;;;;;;;21.93;15.87;;;;;;;18.10;48.68;92392.41;5070256;28;20220;-69
2023/03/25 10:04:15;;;;;;;22.97;16.20;;;;;;;17.92;48.17;92381.25;5069395;28;20183;-69
2023/03/25 10:06:51;;;;;;;17.53;14.70;;;;;;;17.89;50.32;92381.13;5070474;28;20207;-70
2023/03/25 10:09:29;;;;;;;19.90;16.90;;;;;;;18.06;49.44;92365.09;5069226;28;20215;-69
2023/03/25 10:12:00;;;;;;;17.47;15.77;;;;;;;18.79;46.79;92382.47;5070315;28;20188;-69
2023/03/25 10:14:39;;;;;;;18.00;15.30;;;;;;;18.36;47.77;92374.34;5069715;28;20183;-69
2023/03/25 10:17:31;;;;;;;20.03;14.97;;;;;;;18.17;46.57;92359.06;5069013;28;20189;-69
2023/03/25 10:20:17;;;;;;;19.03;17.10;;;;;;;18.34;46.67;92364.09;5068702;28;20226;-70
2023/03/25 10:22:59;;;;;;;19.73;16.53;;;;;;;17.91;47.69;92366.53;5068295;28;20207;-70
2023/03/25 10:25:28;;;;;;;17.70;14.53;;;;;;;18.90;46.72;92362.38;5069389;28;20232;-69
2023/03/25 10:27:55;;;;;;;15.93;14.43;;;;;;;19.20;46.12;92347.75;5069458;28;20180;-69
2023/03/25 10:30:24;;;;;;;16.23;14.50;;;;;;;19.39;46.24;92345.28;5069959;28;20229;-70
2023/03/25 10:33:03;;;;;;;15.10;13.60;;;;;;;19.11;45.61;92344.47;5070280;28;20867;-70
2023/03/25 10:35:32;;;;;;;14.27;12.90;;;;;;;19.06;43.77;92342.06;5069635;28;20287;-69
2023/03/25 10:38:11;;;;;;;13.43;12.20;;;;;;;18.67;47.01;92337.53;5069086;28;20188;-70
2023/03/25 10:40:43;;;;;;;15.13;13.53;;;;;;;18.98;45.04;92337.69;5067883;28;20337;-69
2023/03/25 10:43:27;;;;;;;13.77;12.37;;;;;;;19.25;44.32;92338.78;5069385;28;20231;-69
2023/03/25 10:46:01;;;;;;;14.17;12.73;;;;;;;19.35;43.76;92335.69;5069234;28;20234;-70
2023/03/25 10:48:28;;;;;;;12.57;11.47;;;;;;;19.25;43.77;92331.63;5070374;28;20191;-68
2023/03/25 10:51:18;;;;;;;12.57;11.37;;;;;;;19.21;43.61;92327.34;5069486;28;20246;-70
2023/03/25 10:53:48;;;;;;;14.30;12.80;;;;;;;18.43;45.17;92327.00;5068995;28;20208;-70
2023/03/25 10:56:23;;;;;;;11.60;10.73;;;;;;;19.00;42.82;92328.28;5069235;28;20230;-69
2023/03/25 10:58:53;;;;;;;12.37;11.33;;;;;;;18.83;44.97;92322.53;5069888;28;20243;-70
2023/03/25 11:01:21;;;;;;;11.53;10.43;;;;;;;18.74;43.37;92319.25;5068786;28;20295;-70
2023/03/25 11:03:51;;;;;;;19.93;11.10;;;;;;;19.65;40.93;92319.09;5068623;28;20256;-69
2023/03/25 11:06:24;;;;;;;11.43;10.43;;;;;;;19.36;43.31;92308.88;5068183;28;20219;-70
2023/03/25 11:09:12;;;;;;;11.83;10.93;;;;;;;19.51;40.98;92305.47;5068928;28;20219;-69
2023/03/25 11:11:39;;;;;;;11.83;10.70;;;;;;;19.34;41.99;92310.31;5100263;28;20322;-70
2023/03/25 11:14:05;;;;;;;11.93;10.53;;;;;;;19.48;42.05;92294.78;5068240;28;20835;-69
2023/03/25 11:16:40;;;;;;;12.43;9.87;;;;;;;19.29;41.11;92298.09;5068925;28;20238;-70
2023/03/25 11:19:06;;;;;;;11.90;10.73;;;;;;;19.16;42.65;92283.34;5068359;28;20195;-71
2023/03/25 11:21:32;;;;;;;10.47;9.77;;;;;;;19.46;41.77;92287.19;5068321;28;20238;-68
2023/03/25 11:23:59;;;;;;;12.33;11.37;;;;;;;18.49;44.48;92280.75;5067657;28;20188;-70
2023/03/25 11:26:29;;;;;;;11.10;10.30;;;;;;;18.80;45.01;92284.28;5068560;28;20215;-70
2023/03/25 11:29:05;;;;;;;11.23;9.80;;;;;;;19.28;44.02;92280.69;5068654;28;20183;-69
2023/03/25 11:31:36;;;;;;;10.63;9.83;;;;;;;18.91;44.96;92280.03;5068341;28;20228;-70
2023/03/25 11:34:10;;;;;;;11.43;10.43;;;;;;;19.23;43.62;92275.59;5068787;28;20175;-70